Time;durP1;ratioP1;P1;durP2;ratioP2;P2;SDS_P1;SDS_P2;PMS_P1;PMS_P2;Temp;Humidity;BMP_temperature;BMP_pressure;BME280_temperature;BME280_humidity;BME280_pressure;Samples;Min_cycle;Max_cycle;Signal;HPM_P1;HPM_P2
2023/06/21 00:00:48;;;;;;;5.65;3.85;;;21.40;99.90;;;;;;4993963;28;20035;-75
2023/06/21 00:03:15;;;;;;;7.55;4.53;;;21.40;99.90;;;;;;4994550;28;20460;-75
2023/06/21 00:05:41;;;;;;;6.00;4.57;;;21.40;99.90;;;;;;5009187;28;20527;-74
2023/06/21 00:08:07;;;;;;;7.68;4.50;;;21.30;99.90;;;;;;4994839;28;20034;-74
2023/06/21 00:10:33;;;;;;;4.97;4.20;;;21.30;99.90;;;;;;5009656;28;20464;-74
2023/06/21 00:12:59;;;;;;;6.93;4.32;;;21.30;99.90;;;;;;5009732;28;20030;-74
2023/06/21 00:15:26;;;;;;;7.47;4.60;;;21.30;99.90;;;;;;5008668;28;20101;-74
2023/06/21 00:17:52;;;;;;;6.72;4.53;;;21.30;99.90;;;;;;4994284;28;20463;-74
2023/06/21 00:20:18;;;;;;;6.85;4.50;;;21.20;99.90;;;;;;5009236;28;20026;-74
2023/06/21 00:22:45;;;;;;;5.25;4.32;;;21.20;99.90;;;;;;4994578;28;20034;-74
2023/06/21 00:25:11;;;;;;;6.30;4.70;;;21.20;99.90;;;;;;4994194;28;20053;-75
2023/06/21 00:27:38;;;;;;;8.60;4.68;;;21.10;99.90;;;;;;4994335;28;20026;-74
2023/06/21 00:30:05;;;;;;;8.25;4.45;;;21.10;99.90;;;;;;5008836;28;20034;-74
2023/06/21 00:32:31;;;;;;;4.55;4.15;;;21.10;99.90;;;;;;4993803;28;20031;-75
2023/06/21 00:34:57;;;;;;;7.18;4.50;;;21.10;99.90;;;;;;4994210;28;20038;-74
2023/06/21 00:37:26;;;;;;;6.15;4.25;;;21.00;99.90;;;;;;4992767;28;20038;-75
2023/06/21 00:39:52;;;;;;;7.68;5.32;;;21.00;99.90;;;;;;4994323;28;20464;-74
2023/06/21 00:42:18;;;;;;;8.88;5.20;;;21.00;99.90;;;;;;5008896;28;20042;-74
2023/06/21 00:44:44;;;;;;;8.90;5.32;;;21.00;99.90;;;;;;5008841;28;20038;-74
2023/06/21 00:47:10;;;;;;;9.15;5.28;;;21.00;99.90;;;;;;5008336;28;20368;-74
2023/06/21 00:49:36;;;;;;;7.65;5.30;;;21.00;99.90;;;;;;4992694;28;20046;-74
2023/06/21 00:52:05;;;;;;;8.68;5.00;;;21.00;99.90;;;;;;4993521;28;20439;-74
2023/06/21 00:54:35;;;;;;;8.60;5.07;;;20.90;99.90;;;;;;5008812;28;20030;-75
2023/06/21 00:57:01;;;;;;;9.60;5.07;;;20.80;99.90;;;;;;5008355;28;20030;-74
2023/06/21 00:59:28;;;;;;;6.93;5.20;;;20.70;99.90;;;;;;5008677;28;20383;-74
2023/06/21 01:01:57;;;;;;;7.97;5.60;;;20.70;99.90;;;;;;5007881;28;20034;-74
2023/06/21 01:04:29;;;;;;;8.63;5.30;;;20.60;99.90;;;;;;5008406;28;20395;-75
2023/06/21 01:07:01;;;;;;;7.45;5.28;;;20.70;99.90;;;;;;5008223;28;20026;-74
2023/06/21 01:09:54;;;;;;;5.97;4.78;;;20.60;99.90;;;;;;4993622;28;20027;-74
2023/06/21 01:12:49;;;;;;;12.10;5.57;;;20.60;99.90;;;;;;4991182;28;20035;-74
2023/06/21 01:15:21;;;;;;;5.75;4.60;;;20.50;99.90;;;;;;4968004;28;20043;-74
2023/06/21 01:17:51;;;;;;;8.27;5.25;;;20.60;99.90;;;;;;4973784;28;20042;-74
2023/06/21 01:20:18;;;;;;;7.25;5.20;;;20.60;99.90;;;;;;4970710;28;20030;-74
2023/06/21 01:23:12;;;;;;;6.30;5.50;;;20.60;99.90;;;;;;4975328;28;20056;-74
2023/06/21 01:25:45;;;;;;;7.47;5.32;;;20.60;99.90;;;;;;4974691;28;20054;-74
2023/06/21 01:28:31;;;;;;;10.50;6.10;;;20.50;99.90;;;;;;4974308;28;20475;-74
2023/06/21 01:30:57;;;;;;;7.75;6.65;;;20.40;99.90;;;;;;4989733;28;20041;-74
2023/06/21 01:33:24;;;;;;;10.45;9.50;;;20.30;99.90;;;;;;4988826;28;20038;-74
2023/06/21 01:35:52;;;;;;;10.98;10.10;;;20.30;99.90;;;;;;4979832;28;20034;-75
2023/06/21 01:38:19;;;;;;;12.70;11.30;;;20.30;99.90;;;;;;4987289;28;20026;-74
2023/06/21 01:40:45;;;;;;;10.50;7.75;;;20.30;99.90;;;;;;4976049;28;20431;-74
2023/06/21 01:43:11;;;;;;;11.13;7.15;;;20.30;99.90;;;;;;4974618;28;20031;-74
2023/06/21 01:45:37;;;;;;;11.43;8.45;;;20.30;99.90;;;;;;4974040;28;20519;-74
2023/06/21 01:48:04;;;;;;;11.65;10.73;;;20.20;99.90;;;;;;4974531;28;20031;-74
2023/06/21 01:50:34;;;;;;;9.80;8.88;;;20.20;99.90;;;;;;4990586;28;20050;-74
2023/06/21 01:53:00;;;;;;;6.95;6.00;;;20.20;99.90;;;;;;4999976;28;20034;-74
2023/06/21 01:55:26;;;;;;;7.85;7.00;;;20.30;99.90;;;;;;5012239;28;20030;-74
2023/06/21 01:57:52;;;;;;;11.48;9.18;;;20.20;99.90;;;;;;5027731;28;20038;-74
2023/06/21 02:00:21;;;;;;;9.00;8.07;;;20.20;99.90;;;;;;5026339;28;20360;-74
2023/06/21 02:02:50;;;;;;;10.13;9.18;;;20.10;99.90;;;;;;5007317;28;20029;-74
2023/06/21 02:05:16;;;;;;;11.88;10.77;;;20.00;99.90;;;;;;5002802;28;20034;-74
2023/06/21 02:07:47;;;;;;;13.50;12.32;;;20.00;99.90;;;;;;5026101;28;20041;-74
2023/06/21 02:10:14;;;;;;;11.85;10.50;;;20.00;99.90;;;;;;5025614;28;20049;-74
2023/06/21 02:12:41;;;;;;;14.68;13.38;;;20.00;99.90;;;;;;5009455;28;20037;-73
2023/06/21 02:15:08;;;;;;;14.95;13.80;;;20.00;99.90;;;;;;5025810;28;20474;-73
2023/06/21 02:17:34;;;;;;;13.57;12.55;;;19.90;99.90;;;;;;5042975;28;20034;-74
2023/06/21 02:20:13;;;;;;;14.85;13.68;;;19.90;99.90;;;;;;5042742;28;20037;-74
2023/06/21 02:22:40;;;;;;;11.88;10.45;;;20.00;99.90;;;;;;5030270;28;20034;-74
2023/06/21 02:25:07;;;;;;;11.48;10.32;;;19.90;99.90;;;;;;4990306;28;20050;-74
2023/06/21 02:27:33;;;;;;;10.32;9.07;;;19.90;99.90;;;;;;5009135;28;20026;-74
2023/06/21 02:29:59;;;;;;;9.90;8.55;;;19.90;99.90;;;;;;5011125;28;20037;-74
2023/06/21 02:32:25;;;;;;;13.88;10.55;;;19.90;99.90;;;;;;5025408;28;20034;-74
2023/06/21 02:34:51;;;;;;;10.10;9.18;;;19.90;99.90;;;;;;5010912;28;20034;-74
2023/06/21 02:37:18;;;;;;;13.82;12.73;;;19.80;99.90;;;;;;5010020;28;20046;-74
2023/06/21 02:39:44;;;;;;;16.35;14.95;;;19.80;99.90;;;;;;5046382;28;20044;-74
2023/06/21 02:42:10;;;;;;;12.52;11.07;;;19.80;99.90;;;;;;5047091;28;20486;-74
2023/06/21 02:44:36;;;;;;;12.23;11.18;;;19.70;99.90;;;;;;5015855;28;20038;-74
2023/06/21 02:47:02;;;;;;;16.95;15.65;;;19.70;99.90;;;;;;5015090;28;20033;-75
2023/06/21 02:49:28;;;;;;;15.88;14.55;;;19.70;99.90;;;;;;5015745;28;20069;-74
2023/06/21 02:51:54;;;;;;;13.02;11.70;;;19.70;99.90;;;;;;5015830;28;20034;-75
2023/06/21 02:54:20;;;;;;;13.57;9.13;;;19.70;99.90;;;;;;5015873;28;20030;-75
2023/06/21 02:56:46;;;;;;;12.00;10.10;;;19.70;99.90;;;;;;5014893;28;20033;-74
2023/06/21 02:59:13;;;;;;;11.30;10.27;;;19.70;99.90;;;;;;5030888;28;20486;-74
2023/06/21 03:01:39;;;;;;;14.85;13.43;;;19.70;99.90;;;;;;5029987;28;20041;-74
2023/06/21 03:04:05;;;;;;;15.55;14.25;;;19.60;99.90;;;;;;5015372;28;20490;-74
2023/06/21 03:06:33;;;;;;;14.32;10.45;;;19.60;99.90;;;;;;5015299;28;20038;-75
2023/06/21 03:09:00;;;;;;;15.98;14.60;;;19.60;99.90;;;;;;5015625;28;20034;-74
2023/06/21 03:11:26;;;;;;;16.13;14.93;;;19.50;99.90;;;;;;5029969;28;20101;-74
2023/06/21 03:13:52;;;;;;;15.73;13.77;;;19.50;99.90;;;;;;5014012;28;20438;-74
2023/06/21 03:16:18;;;;;;;15.50;14.18;;;19.50;99.90;;;;;;5002980;28;20038;-74
2023/06/21 03:18:44;;;;;;;15.10;13.57;;;19.60;99.90;;;;;;4995587;28;20038;-74
2023/06/21 03:21:10;;;;;;;16.38;13.60;;;19.50;99.90;;;;;;5027274;28;20478;-74
2023/06/21 03:23:36;;;;;;;12.18;11.05;;;19.50;99.90;;;;;;4995774;28;20034;-75
2023/06/21 03:26:02;;;;;;;15.40;14.10;;;19.50;99.90;;;;;;4998897;28;20041;-74
2023/06/21 03:28:28;;;;;;;14.48;13.27;;;19.50;99.90;;;;;;5015170;28;20379;-74
2023/06/21 03:30:57;;;;;;;10.75;9.98;;;19.40;99.90;;;;;;5007980;28;20042;-74
2023/06/21 03:33:24;;;;;;;14.05;12.95;;;19.40;99.90;;;;;;5010218;28;20042;-74
2023/06/21 03:35:50;;;;;;;15.27;14.05;;;19.30;99.90;;;;;;4995093;28;20030;-74
2023/06/21 03:38:17;;;;;;;15.23;13.93;;;19.20;99.90;;;;;;5010313;28;20031;-74
2023/06/21 03:40:44;;;;;;;16.13;14.82;;;19.30;99.90;;;;;;5008407;28;20035;-74
2023/06/21 03:43:10;;;;;;;14.55;13.30;;;19.20;99.90;;;;;;5010483;28;20022;-74
2023/06/21 03:45:36;;;;;;;14.48;12.90;;;19.20;99.90;;;;;;4994776;28;20042;-74
2023/06/21 03:48:05;;;;;;;15.07;13.95;;;19.10;99.90;;;;;;4994804;28;20037;-74
2023/06/21 03:50:32;;;;;;;16.85;15.43;;;19.10;99.90;;;;;;4993550;28;20030;-75
2023/06/21 03:52:58;;;;;;;14.80;13.60;;;19.20;99.90;;;;;;4994859;28;20034;-74
2023/06/21 03:55:25;;;;;;;16.02;14.73;;;19.10;99.90;;;;;;4994605;28;20034;-74
2023/06/21 03:57:51;;;;;;;16.88;15.57;;;19.10;99.90;;;;;;5010317;28;20019;-74
2023/06/21 04:00:17;;;;;;;18.10;16.52;;;19.10;99.90;;;;;;4996120;28;20415;-74
2023/06/21 04:02:43;;;;;;;21.17;19.45;;;19.10;99.90;;;;;;5029838;28;20636;-74
2023/06/21 04:05:10;;;;;;;19.95;18.23;;;19.00;99.90;;;;;;5014331;28;20041;-74
2023/06/21 04:07:39;;;;;;;18.15;16.73;;;19.10;99.90;;;;;;5009368;28;20047;-74
2023/06/21 04:10:06;;;;;;;13.00;11.57;;;19.10;99.90;;;;;;4994350;28;20030;-74
2023/06/21 04:12:32;;;;;;;14.98;12.40;;;19.10;99.90;;;;;;5028530;28;20041;-74
2023/06/21 04:15:00;;;;;;;11.07;8.70;;;19.10;99.90;;;;;;5014150;28;20049;-74
2023/06/21 04:17:30;;;;;;;10.43;8.57;;;19.10;99.90;;;;;;5013416;28;20510;-74
2023/06/21 04:19:56;;;;;;;11.15;8.07;;;19.10;99.90;;;;;;5014205;28;20030;-75
2023/06/21 04:22:24;;;;;;;12.27;8.48;;;19.10;99.90;;;;;;5012169;28;20033;-75
2023/06/21 04:24:51;;;;;;;9.43;8.57;;;19.20;99.90;;;;;;5012902;28;20029;-74
2023/06/21 04:27:17;;;;;;;9.48;8.52;;;19.10;99.90;;;;;;5012527;28;20033;-75
2023/06/21 04:29:43;;;;;;;11.38;10.15;;;19.10;99.90;;;;;;5013844;28;20574;-75
2023/06/21 04:32:09;;;;;;;12.00;8.88;;;19.10;99.90;;;;;;4995730;28;20046;-74
2023/06/21 04:34:36;;;;;;;10.07;9.10;;;19.10;99.90;;;;;;5009515;28;20022;-75
2023/06/21 04:37:05;;;;;;;9.20;8.10;;;19.10;99.90;;;;;;4993461;28;20073;-75
2023/06/21 04:39:32;;;;;;;11.30;10.20;;;19.10;99.90;;;;;;5008870;28;20030;-74
2023/06/21 04:41:58;;;;;;;11.95;10.70;;;19.10;99.90;;;;;;4992779;28;20042;-75
2023/06/21 04:44:27;;;;;;;11.70;9.35;;;19.10;99.90;;;;;;5009087;28;20022;-75
2023/06/21 04:46:57;;;;;;;11.40;8.98;;;19.10;99.90;;;;;;5008337;28;20049;-75
2023/06/21 04:49:26;;;;;;;10.75;7.38;;;19.10;99.90;;;;;;4992617;28;20053;-74
2023/06/21 04:51:57;;;;;;;12.35;7.35;;;19.20;99.90;;;;;;5005925;28;20479;-75
2023/06/21 04:54:28;;;;;;;10.30;8.52;;;19.20;99.90;;;;;;5012306;28;20029;-74
2023/06/21 04:56:54;;;;;;;8.10;6.93;;;19.20;99.90;;;;;;5012032;28;20360;-74
2023/06/21 04:59:21;;;;;;;8.73;7.88;;;19.30;99.90;;;;;;5013395;28;20042;-74
2023/06/21 05:01:48;;;;;;;11.27;8.02;;;19.30;99.90;;;;;;5011654;28;20049;-74
2023/06/21 05:04:14;;;;;;;9.90;8.35;;;19.30;99.90;;;;;;5011852;28;20042;-74
2023/06/21 05:06:41;;;;;;;10.77;7.78;;;19.40;99.90;;;;;;5012618;28;20045;-74
2023/06/21 05:09:10;;;;;;;12.00;6.88;;;19.50;99.90;;;;;;5013373;28;20382;-75
2023/06/21 05:11:37;;;;;;;11.40;6.53;;;19.60;99.90;;;;;;5012865;28;20042;-74
2023/06/21 05:14:03;;;;;;;8.50;6.30;;;19.70;99.90;;;;;;5011996;28;20030;-74
2023/06/21 05:16:29;;;;;;;7.25;6.50;;;19.80;99.90;;;;;;5011251;28;20042;-75
2023/06/21 05:18:55;;;;;;;8.00;6.70;;;19.90;99.90;;;;;;5013011;28;20030;-74
2023/06/21 05:21:21;;;;;;;10.45;7.40;;;20.10;99.90;;;;;;5011245;28;20037;-74
2023/06/21 05:23:47;;;;;;;8.75;6.60;;;20.20;99.90;;;;;;5011766;28;20041;-74
2023/06/21 05:26:13;;;;;;;9.05;6.85;;;20.30;99.90;;;;;;5012615;28;20049;-74
2023/06/21 05:28:39;;;;;;;8.35;7.53;;;20.40;99.90;;;;;;5012961;28;20022;-73
2023/06/21 05:31:05;;;;;;;7.63;6.65;;;20.50;99.90;;;;;;5003361;28;20046;-74
2023/06/21 05:33:32;;;;;;;9.02;6.22;;;20.70;99.90;;;;;;4993310;28;20479;-74
2023/06/21 05:35:58;;;;;;;8.68;6.57;;;20.80;99.90;;;;;;4992596;28;20030;-74
2023/06/21 05:38:24;;;;;;;9.90;7.43;;;20.90;99.90;;;;;;4993062;28;20022;-74
2023/06/21 05:40:50;;;;;;;12.45;7.18;;;21.10;99.90;;;;;;4992991;28;20039;-74
2023/06/21 05:43:16;;;;;;;8.32;7.53;;;21.30;99.90;;;;;;4993078;28;20376;-74
2023/06/21 05:45:42;;;;;;;8.90;7.10;;;21.40;99.90;;;;;;5012674;28;20052;-75
2023/06/21 05:48:08;;;;;;;8.43;7.47;;;21.50;99.90;;;;;;5002953;28;20615;-75
2023/06/21 05:50:34;;;;;;;12.10;7.40;;;21.60;99.90;;;;;;4995670;28;20026;-75
2023/06/21 05:53:00;;;;;;;8.25;7.43;;;21.70;99.90;;;;;;5012596;28;20388;-75
2023/06/21 05:55:26;;;;;;;8.23;7.10;;;21.80;99.90;;;;;;5012209;28;20029;-75
2023/06/21 05:57:52;;;;;;;9.73;7.40;;;21.90;99.90;;;;;;5012572;28;20391;-75
2023/06/21 06:00:19;;;;;;;8.65;7.75;;;22.10;99.90;;;;;;5010396;28;20022;-75
2023/06/21 06:02:45;;;;;;;10.55;7.28;;;22.20;99.90;;;;;;5012432;28;20030;-75
2023/06/21 06:05:11;;;;;;;9.43;7.70;;;22.20;99.90;;;;;;5012073;28;20042;-75
2023/06/21 06:07:37;;;;;;;8.05;7.25;;;22.30;99.90;;;;;;5011293;28;20034;-75
2023/06/21 06:10:04;;;;;;;8.65;7.47;;;22.40;99.90;;;;;;5012243;28;20018;-75
2023/06/21 06:12:30;;;;;;;8.05;7.35;;;22.50;99.90;;;;;;5012552;28;20041;-75
2023/06/21 06:14:56;;;;;;;8.30;7.65;;;22.50;99.90;;;;;;5016552;28;20460;-74
2023/06/21 06:17:23;;;;;;;8.32;7.30;;;22.70;99.90;;;;;;5015588;28;20045;-75
2023/06/21 06:19:49;;;;;;;8.20;7.43;;;22.70;99.90;;;;;;5014968;28;20029;-75
2023/06/21 06:22:15;;;;;;;7.63;6.90;;;22.80;99.90;;;;;;5016015;28;20038;-75
2023/06/21 06:24:42;;;;;;;8.27;7.47;;;22.90;99.90;;;;;;5016304;28;20022;-74
2023/06/21 06:27:08;;;;;;;11.95;7.72;;;23.00;99.90;;;;;;5014594;28;20040;-75
2023/06/21 06:29:34;;;;;;;8.55;7.75;;;23.20;99.90;;;;;;5016237;28;20022;-75
2023/06/21 06:32:00;;;;;;;8.15;7.45;;;23.30;99.90;;;;;;5000377;28;20057;-74
2023/06/21 06:34:27;;;;;;;9.40;8.43;;;23.30;99.90;;;;;;4996189;28;20030;-75
2023/06/21 06:36:53;;;;;;;8.88;6.55;;;23.50;99.90;;;;;;4998777;28;20030;-75
2023/06/21 06:39:19;;;;;;;9.25;7.45;;;23.60;99.90;;;;;;4977141;28;20049;-73
2023/06/21 06:41:45;;;;;;;8.75;6.65;;;23.70;99.90;;;;;;4988194;28;20037;-74
2023/06/21 06:44:11;;;;;;;8.43;7.55;;;23.80;99.90;;;;;;4996297;28;20463;-74
2023/06/21 06:46:37;;;;;;;8.68;7.85;;;23.90;99.90;;;;;;5023666;28;20045;-75
2023/06/21 06:49:03;;;;;;;8.27;7.57;;;24.00;99.90;;;;;;4998444;28;20050;-74
2023/06/21 06:51:29;;;;;;;7.80;6.70;;;24.00;99.90;;;;;;5005474;28;20034;-74
2023/06/21 06:53:56;;;;;;;8.85;7.90;;;24.00;99.90;;;;;;5014676;28;20041;-74
2023/06/21 06:56:22;;;;;;;8.20;7.38;;;24.10;99.90;;;;;;5015277;28;20034;-74
2023/06/21 06:58:48;;;;;;;9.48;8.57;;;24.20;99.90;;;;;;5015678;28;20033;-74
2023/06/21 07:01:15;;;;;;;8.23;7.15;;;24.30;99.90;;;;;;5014702;28;20037;-74
2023/06/21 07:03:41;;;;;;;9.77;8.20;;;24.40;99.90;;;;;;5014077;28;20470;-74
2023/06/21 07:06:07;;;;;;;8.55;7.75;;;24.60;99.90;;;;;;4997357;28;20061;-74
2023/06/21 07:08:33;;;;;;;8.18;7.38;;;24.70;99.90;;;;;;5015533;28;20030;-74
2023/06/21 07:10:59;;;;;;;9.82;8.05;;;24.80;99.90;;;;;;4997487;28;20042;-74
2023/06/21 07:13:25;;;;;;;9.00;7.70;;;24.80;99.90;;;;;;5015398;28;20030;-74
2023/06/21 07:15:51;;;;;;;9.15;8.25;;;24.80;99.90;;;;;;5014488;28;20034;-74
2023/06/21 07:18:17;;;;;;;8.02;7.25;;;24.70;99.90;;;;;;5013822;28;20026;-74
2023/06/21 07:20:43;;;;;;;8.43;7.72;;;24.80;99.90;;;;;;5014843;28;20034;-74
2023/06/21 07:23:10;;;;;;;8.30;7.70;;;24.80;99.90;;;;;;5015475;28;20034;-74
2023/06/21 07:25:37;;;;;;;8.63;7.88;;;24.70;99.90;;;;;;5013668;28;20040;-74
2023/06/21 07:28:03;;;;;;;9.18;8.27;;;24.60;99.90;;;;;;5013912;28;20033;-74
2023/06/21 07:30:29;;;;;;;8.68;7.97;;;24.50;99.90;;;;;;5011827;28;20037;-74
2023/06/21 07:32:55;;;;;;;9.23;8.38;;;24.40;99.90;;;;;;4995195;28;20038;-74
2023/06/21 07:35:21;;;;;;;8.85;8.05;;;24.40;99.90;;;;;;5010057;28;20411;-73
2023/06/21 07:37:48;;;;;;;9.38;8.52;;;24.50;99.90;;;;;;4995444;28;20037;-74
2023/06/21 07:40:14;;;;;;;10.35;9.65;;;24.80;99.90;;;;;;4994949;28;20030;-74
2023/06/21 07:42:40;;;;;;;10.88;10.07;;;24.90;99.90;;;;;;5010300;28;20046;-73
2023/06/21 07:45:07;;;;;;;13.00;12.05;;;25.20;99.90;;;;;;4995277;28;20463;-74
2023/06/21 07:47:33;;;;;;;12.65;11.75;;;25.40;99.90;;;;;;5009416;28;20475;-74
2023/06/21 07:49:59;;;;;;;13.20;12.40;;;25.50;99.90;;;;;;4993832;28;20423;-74
2023/06/21 07:52:25;;;;;;;11.65;10.85;;;25.70;99.90;;;;;;5013052;28;20379;-74
2023/06/21 07:54:51;;;;;;;13.88;12.98;;;25.70;99.90;;;;;;5014585;28;20026;-74
2023/06/21 07:57:18;;;;;;;13.10;12.25;;;25.80;99.90;;;;;;5029465;28;20029;-74
2023/06/21 07:59:47;;;;;;;13.35;12.38;;;25.90;99.90;;;;;;5014131;28;20033;-74
2023/06/21 08:02:18;;;;;;;12.55;11.75;;;25.50;99.90;;;;;;5029087;28;20034;-74
2023/06/21 08:04:45;;;;;;;14.82;13.88;;;25.60;99.90;;;;;;5029170;28;20030;-74
2023/06/21 08:07:11;;;;;;;12.52;11.48;;;25.70;99.90;;;;;;5014495;28;20054;-74
2023/06/21 08:09:37;;;;;;;11.32;10.63;;;25.90;99.90;;;;;;5014112;28;20030;-74
2023/06/21 08:12:03;;;;;;;12.23;11.35;;;26.20;99.90;;;;;;5014161;28;20064;-74
2023/06/21 08:14:29;;;;;;;11.45;10.65;;;26.40;99.90;;;;;;5014117;28;20026;-74
2023/06/21 08:16:55;;;;;;;11.82;11.02;;;26.60;99.90;;;;;;5011879;28;20530;-74
2023/06/21 08:19:22;;;;;;;14.57;13.45;;;26.50;99.90;;;;;;5029510;28;20033;-74
2023/06/21 08:21:48;;;;;;;14.52;13.48;;;26.60;99.90;;;;;;5013830;28;20574;-74
2023/06/21 08:24:14;;;;;;;13.55;12.75;;;26.70;99.90;;;;;;5014095;28;20033;-75
2023/06/21 08:26:40;;;;;;;13.90;12.90;;;26.80;99.90;;;;;;5013531;28;20513;-74
2023/06/21 08:29:06;;;;;;;17.10;15.90;;;26.90;99.90;;;;;;4996339;28;20042;-74
2023/06/21 08:31:32;;;;;;;19.27;18.13;;;27.00;99.90;;;;;;5002114;28;20049;-74
2023/06/21 08:33:58;;;;;;;18.85;17.73;;;27.20;99.90;;;;;;4994293;28;20037;-74
2023/06/21 08:36:26;;;;;;;24.70;23.17;;;27.30;99.90;;;;;;4993893;28;20034;-74
2023/06/21 08:38:52;;;;;;;21.33;20.15;;;27.20;99.90;;;;;;4994131;28;20030;-74
2023/06/21 08:41:18;;;;;;;19.70;18.55;;;27.00;99.90;;;;;;4994085;28;20037;-74
2023/06/21 08:43:44;;;;;;;22.77;21.40;;;26.60;99.90;;;;;;4992656;28;20038;-75
2023/06/21 08:46:10;;;;;;;26.08;24.58;;;26.50;99.90;;;;;;5017607;28;20057;-74
2023/06/21 08:48:37;;;;;;;22.17;20.92;;;26.60;99.90;;;;;;5015412;28;20046;-74
2023/06/21 08:51:04;;;;;;;23.63;22.25;;;26.40;99.90;;;;;;4983767;28;20041;-74
2023/06/21 08:53:40;;;;;;;20.65;19.10;;;26.10;99.90;;;;;;5028680;28;20352;-74
2023/06/21 08:56:06;;;;;;;22.95;21.45;;;26.20;99.90;;;;;;5028280;28;20026;-74
2023/06/21 08:58:57;;;;;;;22.95;21.67;;;26.20;99.90;;;;;;5028531;28;20034;-74
2023/06/21 09:01:23;;;;;;;20.45;19.15;;;26.30;99.90;;;;;;5024546;28;20042;-73
2023/06/21 09:03:57;;;;;;;20.23;18.83;;;26.30;99.90;;;;;;5013382;28;20493;-74
2023/06/21 09:06:24;;;;;;;22.27;20.98;;;26.00;99.90;;;;;;5027604;28;20041;-74
2023/06/21 09:08:51;;;;;;;22.33;21.13;;;26.20;99.90;;;;;;5028312;28;20342;-74
2023/06/21 09:11:18;;;;;;;23.63;22.15;;;26.50;99.90;;;;;;5028032;28;20068;-74
2023/06/21 09:13:44;;;;;;;20.95;19.75;;;26.60;99.90;;;;;;5028086;28;20030;-74
2023/06/21 09:16:12;;;;;;;23.50;22.20;;;26.50;99.90;;;;;;5027543;28;20041;-73
2023/06/21 09:18:39;;;;;;;23.58;22.27;;;26.60;99.90;;;;;;5028447;28;20037;-74
2023/06/21 09:21:06;;;;;;;22.27;20.98;;;26.70;99.90;;;;;;5027662;28;20026;-74
2023/06/21 09:23:32;;;;;;;24.08;22.63;;;26.80;99.90;;;;;;5028353;28;20467;-74
2023/06/21 09:25:58;;;;;;;25.27;23.88;;;26.70;99.90;;;;;;5028028;28;20375;-74
2023/06/21 09:28:24;;;;;;;26.42;24.95;;;26.60;99.90;;;;;;5011441;28;20030;-74
2023/06/21 09:30:50;;;;;;;24.90;23.52;;;26.70;99.90;;;;;;5006627;28;20415;-74
2023/06/21 09:33:16;;;;;;;24.00;22.70;;;26.70;99.90;;;;;;5008416;28;20031;-74
2023/06/21 09:35:43;;;;;;;24.92;23.58;;;26.90;99.90;;;;;;4992918;28;20383;-73
2023/06/21 09:38:28;;;;;;;28.38;26.88;;;26.80;99.90;;;;;;4993328;28;20030;-74
2023/06/21 09:40:54;;;;;;;17.60;16.50;;;26.80;99.90;;;;;;5005333;28;20030;-74
2023/06/21 09:43:21;;;;;;;20.80;19.60;;;27.10;98.90;;;;;;5007898;28;20090;-73
2023/06/21 09:46:00;;;;;;;26.58;25.23;;;27.40;99.90;;;;;;5007268;28;20046;-74
2023/06/21 09:48:26;;;;;;;28.42;26.88;;;27.90;99.90;;;;;;4996008;28;20050;-74
2023/06/21 09:50:55;;;;;;;26.27;24.83;;;28.10;99.90;;;;;;4977877;28;20030;-74
2023/06/21 09:53:24;;;;;;;22.73;21.33;;;28.30;98.80;;;;;;5002973;28;20022;-73
2023/06/21 09:55:50;;;;;;;22.33;21.02;;;28.30;99.50;;;;;;4994801;28;20031;-74
2023/06/21 09:58:16;;;;;;;23.13;21.77;;;28.40;98.30;;;;;;4992933;28;20379;-73
2023/06/21 10:00:42;;;;;;;23.48;22.08;;;28.50;99.10;;;;;;5012463;28;20038;-73
2023/06/21 10:03:09;;;;;;;27.25;25.65;;;28.70;99.50;;;;;;5012519;28;20097;-74
2023/06/21 10:05:35;;;;;;;27.80;26.33;;;28.90;99.10;;;;;;5010679;28;20041;-74
2023/06/21 10:08:03;;;;;;;24.13;22.92;;;29.10;99.20;;;;;;5014227;28;20037;-73
2023/06/21 10:10:32;;;;;;;26.88;25.48;;;29.00;97.00;;;;;;5029038;28;20034;-74
2023/06/21 10:12:58;;;;;;;26.20;24.80;;;29.10;97.70;;;;;;5011340;28;20029;-74
2023/06/21 10:15:24;;;;;;;25.60;24.10;;;29.20;98.60;;;;;;5010464;28;20030;-74
2023/06/21 10:17:52;;;;;;;26.90;25.40;;;29.20;96.80;;;;;;5011321;28;20482;-74
2023/06/21 10:20:18;;;;;;;28.52;26.88;;;29.20;96.50;;;;;;4994731;28;20038;-74
2023/06/21 10:22:51;;;;;;;26.90;25.17;;;29.40;95.90;;;;;;5012350;28;20034;-73
2023/06/21 10:25:21;;;;;;;27.52;25.92;;;29.20;96.50;;;;;;5014052;28;20021;-74
2023/06/21 10:27:47;;;;;;;27.73;26.10;;;29.20;96.30;;;;;;4995412;28;20045;-74
2023/06/21 10:30:19;;;;;;;26.35;24.88;;;29.10;95.90;;;;;;5010541;28;20037;-74
2023/06/21 10:32:47;;;;;;;52.22;49.38;;;29.00;96.30;;;;;;5011017;28;20033;-74
2023/06/21 10:35:16;;;;;;;33.72;31.80;;;28.90;97.60;;;;;;5010957;28;20022;-74
2023/06/21 10:37:48;;;;;;;33.53;31.75;;;28.80;97.00;;;;;;5010889;28;20038;-74
2023/06/21 10:40:16;;;;;;;34.47;32.55;;;28.80;97.20;;;;;;5043323;28;20021;-74
2023/06/21 10:42:42;;;;;;;27.95;26.40;;;28.90;97.20;;;;;;5011040;28;20029;-74
2023/06/21 10:45:12;;;;;;;31.02;29.23;;;29.00;97.20;;;;;;5010512;28;20026;-73
2023/06/21 10:47:38;;;;;;;45.72;43.22;;;29.20;97.70;;;;;;4991269;28;20407;-74
2023/06/21 10:50:08;;;;;;;38.25;36.20;;;29.30;97.50;;;;;;4992434;28;20038;-74
2023/06/21 10:52:34;;;;;;;38.77;36.47;;;29.30;97.50;;;;;;5043712;28;20033;-74
2023/06/21 10:55:02;;;;;;;32.97;31.02;;;29.50;97.80;;;;;;5010368;28;20265;-74
2023/06/21 10:57:29;;;;;;;29.88;28.20;;;29.40;96.40;;;;;;5011796;28;20030;-73
2023/06/21 11:00:00;;;;;;;38.25;36.05;;;29.30;95.60;;;;;;5020496;28;20466;-74
2023/06/21 11:02:27;;;;;;;30.27;28.55;;;29.10;96.80;;;;;;5014977;28;20046;-74
2023/06/21 11:05:18;;;;;;;30.38;28.63;;;29.20;96.00;;;;;;5014521;28;20029;-74
2023/06/21 11:07:57;;;;;;;30.95;29.25;;;29.20;95.90;;;;;;5015487;28;20038;-74
2023/06/21 11:10:43;;;;;;;28.75;27.13;;;29.10;95.60;;;;;;5013833;28;20022;-74
2023/06/21 11:13:09;;;;;;;38.65;36.53;;;29.20;96.00;;;;;;5014334;28;20018;-74
2023/06/21 11:15:40;;;;;;;43.92;41.35;;;29.40;97.60;;;;;;5013471;28;20063;-74
2023/06/21 11:18:07;;;;;;;29.88;28.17;;;29.60;97.90;;;;;;5014308;28;20026;-74
2023/06/21 11:20:49;;;;;;;29.75;28.02;;;29.40;94.60;;;;;;5015201;28;20463;-74
2023/06/21 11:23:19;;;;;;;29.67;27.98;;;29.30;96.10;;;;;;5015017;28;20034;-74
2023/06/21 11:25:50;;;;;;;28.10;26.40;;;29.40;95.80;;;;;;5013981;28;20021;-74
2023/06/21 11:28:19;;;;;;;27.48;25.95;;;29.20;94.80;;;;;;5013966;28;20038;-74
2023/06/21 11:31:00;;;;;;;30.52;28.70;;;29.10;94.60;;;;;;5014329;28;20034;-74
2023/06/21 11:33:29;;;;;;;32.72;30.90;;;29.00;95.30;;;;;;5015026;28;20033;-74
2023/06/21 11:36:06;;;;;;;41.72;39.28;;;29.20;96.00;;;;;;5013640;28;20029;-74
2023/06/21 11:38:32;;;;;;;32.47;30.50;;;29.10;96.10;;;;;;5013490;28;20033;-74
2023/06/21 11:40:58;;;;;;;30.98;28.90;;;29.10;95.40;;;;;;5013621;28;20037;-74
2023/06/21 11:43:24;;;;;;;31.50;29.70;;;29.00;95.30;;;;;;5014798;28;20033;-74
2023/06/21 11:45:57;;;;;;;31.05;29.23;;;28.70;95.20;;;;;;5014230;28;20045;-74
2023/06/21 11:48:24;;;;;;;31.15;29.45;;;28.50;95.40;;;;;;5014471;28;20053;-74
2023/06/21 11:50:52;;;;;;;31.00;29.27;;;28.30;95.10;;;;;;5013271;28;20061;-74
2023/06/21 11:53:23;;;;;;;29.30;27.60;;;28.20;95.60;;;;;;5013151;28;20034;-74
2023/06/21 11:56:00;;;;;;;31.55;29.85;;;28.20;95.70;;;;;;5013435;28;20034;-74
2023/06/21 11:58:26;;;;;;;29.40;27.67;;;28.40;95.60;;;;;;5013483;28;20482;-74
2023/06/21 12:00:53;;;;;;;28.95;27.30;;;28.40;94.70;;;;;;5024237;28;20049;-74
2023/06/21 12:03:21;;;;;;;26.90;25.40;;;28.50;95.20;;;;;;5013204;28;20029;-74
2023/06/21 12:05:50;;;;;;;25.58;23.85;;;28.60;95.10;;;;;;5013174;28;20050;-74
2023/06/21 12:08:17;;;;;;;32.90;31.10;;;28.50;94.60;;;;;;5014023;28;20471;-74
2023/06/21 12:10:44;;;;;;;36.53;34.63;;;28.70;96.30;;;;;;5012448;28;20088;-74
2023/06/21 12:13:14;;;;;;;29.05;27.35;;;29.10;96.70;;;;;;5013222;28;20041;-74
2023/06/21 12:15:52;;;;;;;26.25;24.75;;;29.30;94.00;;;;;;5013654;28;20038;-74
2023/06/21 12:18:18;;;;;;;33.42;31.60;;;29.20;93.30;;;;;;5013088;28;20045;-74
2023/06/21 12:20:45;;;;;;;25.60;24.13;;;29.10;93.50;;;;;;5013674;28;20063;-73
2023/06/21 12:23:11;;;;;;;27.00;25.45;;;29.20;93.40;;;;;;5014023;28;20041;-74
2023/06/21 12:25:48;;;;;;;26.98;25.48;;;29.20;92.90;;;;;;5012551;28;20026;-74
2023/06/21 12:28:15;;;;;;;27.90;26.40;;;29.40;92.90;;;;;;5012735;28;20141;-74
2023/06/21 12:30:50;;;;;;;24.38;22.98;;;29.40;93.00;;;;;;5012228;28;20037;-74
2023/06/21 12:33:17;;;;;;;29.77;28.08;;;29.40;92.40;;;;;;5013810;28;20037;-74
2023/06/21 12:35:45;;;;;;;27.83;26.35;;;29.40;92.50;;;;;;5013123;28;20037;-74
2023/06/21 12:38:16;;;;;;;35.22;33.22;;;29.30;93.50;;;;;;5012699;28;20026;-74